Race Results for…
Tent City Marathon

March 25, 2018 Results presented by Tent City Marathlon and timed by Central Valley Timing
Last Updated:
3/28/2018 11:51:00 AM
Stats

Leaderboards

Jump to a Leaderboard

HALF MARATHON

Male - Overall
Bib Name Gun Elapsed Chip Elapsed Pace City Age
1 887 Michael Cordsen 01:20:40 01:20:38 06:09 min/mile Paso Robles 37
Female - Overall
Bib Name Gun Elapsed Chip Elapsed Pace City Age
1 650 CATHLEEN WILLY 01:30:00 01:29:58 06:52 min/mile BREMERTON 33

FULL MARATHON

Male - Overall
Bib Name Gun Elapsed Chip Elapsed Pace City Age
1 683 GREG SAIKI 02:56:10 02:56:08 06:43 min/mile BAKERSFIELD 38
Female - Overall
Bib Name Gun Elapsed Chip Elapsed Pace City Age
1 654 ALISSA ARMSTRONG 04:00:39 04:00:31 09:10 min/mile SAN DIEGO 27

5K

Male - Overall
Bib Name Gun Elapsed Chip Elapsed Pace City Age
1 768 DEREK WRIGHT 00:20:11 00:20:06 06:29 min/mile SUPERIOR 20
Female - Overall
Bib Name Gun Elapsed Chip Elapsed Pace City Age
1 723 KAYLA HURL 00:21:08 00:21:06 06:48 min/mile SHANDON 15

10K

Male - Overall
Bib Name Gun Elapsed Chip Elapsed Pace City Age
1 880 Johnathan Dolan 00:38:46 00:38:44 06:14 min/mile Atascadero 15
Female - Overall
Bib Name Gun Elapsed Chip Elapsed Pace City Age
1 849 REBECCA SANCHEZ 00:51:28 00:51:24 08:17 min/mile TEMPLETON 39

Overall Results

Tip: Swipe the results table to view more.
120 entrants …
HALF MARATHON Results
Bib Name Finish Time Gun Elapsed Chip Elapsed Age Division Gender City Gender Place Div Place Age Place Pace
887 Michael Cordsen 07:53:40 01:20:40 01:20:38 37 HALF MARATHON M Paso Robles 1 1 O/A 06:09 min/mile
516 MATTHEW BLY 08:02:15 01:29:15 01:29:13 35 HALF MARATHON M SANTA MARIA 2 2 1 06:48 min/mile
650 CATHLEEN WILLY 08:03:00 01:30:00 01:29:58 33 HALF MARATHON F BREMERTON 1 3 O/A 06:52 min/mile
613 MICAELA PEPPLE 08:05:41 01:32:41 01:32:38 38 HALF MARATHON F ATASCADERO 2 4 1 07:04 min/mile
589 SEAN MCCORMICK 08:05:43 01:32:43 01:32:41 54 HALF MARATHON M PASO ROBLES 3 5 1 07:04 min/mile
578 TOM LISSETT 08:08:44 01:35:44 01:35:39 36 HALF MARATHON M SOUTHPORT 4 6 1 07:18 min/mile
631 MATTHEW SHUCK 08:10:30 01:37:30 01:37:25 33 HALF MARATHON M ATASCADERO 5 7 2 07:26 min/mile
520 COURTNEY BRARD 08:11:17 01:38:17 01:38:13 35 HALF MARATHON F ATASCADERO 3 8 1 07:29 min/mile
606 STEVE NOONE 08:11:39 01:38:39 01:38:35 39 HALF MARATHON M TEMPLETON 6 9 2 07:31 min/mile
548 LYNETTE GAONA 08:12:08 01:39:08 01:38:52 46 HALF MARATHON F SANTA BARBARA 4 10 1 07:32 min/mile
581 TONY LOPEZ 08:15:08 01:42:08 01:41:59 55 HALF MARATHON M TEMPLETON 7 11 2 07:47 min/mile
590 LAURA MCGAULEYFISCHER 08:16:34 01:43:34 01:43:19 34 HALF MARATHON F CAYUCOS 5 12 2 07:53 min/mile
580 MASON LIVINGSTON 08:16:50 01:43:50 01:43:39 26 HALF MARATHON M ATASCADERO 8 13 1 07:54 min/mile
881 Nicholas Smaira 08:17:31 01:44:31 01:44:27 33 HALF MARATHON M San Luis Obispo 9 14 3 07:58 min/mile
879 Caleb Davs 08:18:16 01:45:16 01:45:02 37 HALF MARATHON M Atascadero 10 15 3 08:01 min/mile
526 VICKI CLEMENTS 08:18:32 01:45:32 01:45:29 47 HALF MARATHON F PASO ROBLES 6 16 2 08:03 min/mile
567 JEFFREY HODDE 08:19:23 01:46:23 01:46:04 42 HALF MARATHON M ATASCADERO 11 17 4 08:05 min/mile
536 PATRICK DAVIES 08:19:53 01:46:53 01:46:40 36 HALF MARATHON M ATASCADERO 12 18 5 08:08 min/mile
505 DOMINIC ALOIA 08:20:18 01:47:18 01:47:01 35 HALF MARATHON M NEW YORK 13 19 4 08:10 min/mile
528 CLARE CORBIN 08:20:25 01:47:25 01:47:21 20 HALF MARATHON F ATASCADERO 7 20 1 08:11 min/mile
527 JENI CLEVENGER 08:20:45 01:47:45 01:47:42 37 HALF MARATHON F TEMPLETON 8 21 2 08:13 min/mile
502 JOE ALLEN 08:21:18 01:48:18 01:48:12 54 HALF MARATHON M ATASCADERO 14 22 3 08:15 min/mile
512 KALI BEARD 08:22:57 01:49:57 01:49:41 36 HALF MARATHON F ATASCADERO 9 23 3 08:22 min/mile
579 JOHNNY WHITE 08:23:04 01:50:04 01:49:50 26 HALF MARATHON M ATASCADERO 15 24 2 08:23 min/mile
539 DAVID DUNBAR 08:23:26 01:50:26 01:50:23 62 HALF MARATHON M ARROYO GRANDE 16 25 4 08:25 min/mile
559 JOE HANSON 08:24:32 01:51:32 01:51:21 27 HALF MARATHON M SAN FRANCISCO 17 26 3 08:30 min/mile
635 DAN SIMMONS 08:24:49 01:51:49 01:51:39 70 HALF MARATHON M ATASCADERO 18 27 1 08:31 min/mile
645 ORLANDO VIERA SERRANO 08:25:28 01:52:28 01:52:21 27 HALF MARATHON M SAN LUIS OBISPO 19 28 4 08:34 min/mile
576 DON LINDSAY 08:25:30 01:52:30 01:52:21 64 HALF MARATHON M WINDSOR 20 29 5 08:34 min/mile
583 HANNAH MAKOWETSKI 08:26:37 01:53:37 01:53:26 19 HALF MARATHON F MORRO BAY 10 30 2 08:39 min/mile
584 MATT MAKOWETSKI 08:26:37 01:53:37 01:53:26 50 HALF MARATHON M MORRO BAY 21 31 1 08:39 min/mile
582 KELLY MACKINGA 08:27:35 01:54:35 01:54:31 36 HALF MARATHON F ATASCADERO 11 32 4 08:44 min/mile
637 LUKE SOULES 08:27:58 01:54:58 01:54:41 33 HALF MARATHON M SN LUIS OBISP 22 33 5 08:45 min/mile
521 KENNEDY CAIN 08:27:58 01:54:58 01:54:56 22 HALF MARATHON F FRESNO 12 34 1 08:46 min/mile
612 ALISON PATTERSON 08:28:13 01:55:13 01:55:06 46 HALF MARATHON F SAN DIEGO 13 35 3 08:47 min/mile
596 DANIELA MEDRANO 08:29:55 01:56:55 01:56:47 40 HALF MARATHON F ATASCADERO 14 36 5 08:54 min/mile
525 REANNA CLAYTON 08:30:16 01:57:16 01:56:53 28 HALF MARATHON F ATASCADERO 15 37 2 08:55 min/mile
550 OCTABIO GARCIA 08:30:35 01:57:35 01:57:22 27 HALF MARATHON M PASO ROBLES 23 38 5 08:57 min/mile
571 KATIE ISAAC 08:30:59 01:57:59 01:57:50 21 HALF MARATHON F VISALIA 16 39 3 08:59 min/mile
623 TIFFANY SALINAS 08:31:42 01:58:42 01:58:33 28 HALF MARATHON F PASO ROBLES 17 40 4 09:02 min/mile
572 SUZI JIANUZZI 08:31:48 01:58:48 01:58:39 61 HALF MARATHON F TEMPLETON 18 41 1 09:03 min/mile
565 LINDSEY HIGGINS 08:33:56 02:00:56 02:00:42 38 HALF MARATHON F SAN LUIS OBISPO 19 42 6 09:12 min/mile
603 ERIK MUELLERS 08:33:49 02:00:49 02:00:44 25 HALF MARATHON M PARADISE 24 43 6 09:12 min/mile
616 MADISON RAMSEY 08:35:19 02:02:19 02:02:15 21 HALF MARATHON F SAN LUIS OBISPO 20 44 5 09:19 min/mile
617 DOUGLAS REPETTI 08:36:22 02:03:22 02:03:12 67 HALF MARATHON M NEWARK 25 45 2 09:24 min/mile
577 MATTIE LINDSEY 08:38:40 02:05:40 02:05:37 17 HALF MARATHON F ATASCADERO 21 46 3 09:35 min/mile
636 MIKE SMITH 08:40:01 02:07:01 02:06:50 63 HALF MARATHON M FRESNO 26 47 6 09:40 min/mile
558 SARA GURULÉ 08:41:29 02:08:29 02:08:20 21 HALF MARATHON F FRESNO 22 48 6 09:47 min/mile
614 KEITH PHILPOTT 08:41:38 02:08:38 02:08:28 36 HALF MARATHON M SAN FRANCISCO 27 49 6 09:48 min/mile
601 RUSSELL MORAN 08:42:38 02:09:38 02:09:20 23 HALF MARATHON M ARROYO GRANDE 28 50 7 09:52 min/mile
120 entrants …

Winners

Tip: Slide the results table left and right to view more.
Overall
Bib Name Finish Time Gun Elapsed Chip Elapsed Age Division Gender City Gender Place Div Place Age Place Pace
887 Michael Cordsen 07:53:40.542 01:20:40 01:20:38 37 HALF MARATHON M Paso Robles 1 1 O/A 06:09 min/mile
650 CATHLEEN WILLY 08:03:00.574 01:30:00 01:29:58 33 HALF MARATHON F BREMERTON 1 3 O/A 06:52 min/mile
1 - 20
Bib Name Finish Time Gun Elapsed Chip Elapsed Age Division Gender City Gender Place Div Place Age Place Pace
537 DAVID DAVIS 08:58:14.919 02:25:14 02:25:01 20 HALF MARATHON M ATASCADERO 39 76 1 11:04 min/mile
528 CLARE CORBIN 08:20:25.472 01:47:25 01:47:21 20 HALF MARATHON F ATASCADERO 7 20 1 08:11 min/mile
21 - 28
Bib Name Finish Time Gun Elapsed Chip Elapsed Age Division Gender City Gender Place Div Place Age Place Pace
580 MASON LIVINGSTON 08:16:50.702 01:43:50 01:43:39 26 HALF MARATHON M ATASCADERO 8 13 1 07:54 min/mile
521 KENNEDY CAIN 08:27:58.821 01:54:58 01:54:56 22 HALF MARATHON F FRESNO 12 34 1 08:46 min/mile
29 - 35
Bib Name Finish Time Gun Elapsed Chip Elapsed Age Division Gender City Gender Place Div Place Age Place Pace
516 MATTHEW BLY 08:02:15.559 01:29:15 01:29:13 35 HALF MARATHON M SANTA MARIA 2 2 1 06:48 min/mile
520 COURTNEY BRARD 08:11:17.463 01:38:17 01:38:13 35 HALF MARATHON F ATASCADERO 3 8 1 07:29 min/mile
36 - 42
Bib Name Finish Time Gun Elapsed Chip Elapsed Age Division Gender City Gender Place Div Place Age Place Pace
578 TOM LISSETT 08:08:44.960 01:35:44 01:35:39 36 HALF MARATHON M SOUTHPORT 4 6 1 07:18 min/mile
613 MICAELA PEPPLE 08:05:41.782 01:32:41 01:32:38 38 HALF MARATHON F ATASCADERO 2 4 1 07:04 min/mile
43 - 53
Bib Name Finish Time Gun Elapsed Chip Elapsed Age Division Gender City Gender Place Div Place Age Place Pace
584 MATT MAKOWETSKI 08:26:37.317 01:53:37 01:53:26 50 HALF MARATHON M MORRO BAY 21 31 1 08:39 min/mile
548 LYNETTE GAONA 08:12:08.288 01:39:08 01:38:52 46 HALF MARATHON F SANTA BARBARA 4 10 1 07:32 min/mile
54 - 64
Bib Name Finish Time Gun Elapsed Chip Elapsed Age Division Gender City Gender Place Div Place Age Place Pace
589 SEAN MCCORMICK 08:05:43.891 01:32:43 01:32:41 54 HALF MARATHON M PASO ROBLES 3 5 1 07:04 min/mile
572 SUZI JIANUZZI 08:31:48.627 01:58:48 01:58:39 61 HALF MARATHON F TEMPLETON 18 41 1 09:03 min/mile
65 - 98
Bib Name Finish Time Gun Elapsed Chip Elapsed Age Division Gender City Gender Place Div Place Age Place Pace
635 DAN SIMMONS 08:24:49.092 01:51:49 01:51:39 70 HALF MARATHON M ATASCADERO 18 27 1 08:31 min/mile
509 KAREN AYDELOTT 10:10:04.848 03:37:04 03:36:42 72 HALF MARATHON F SAN LUIS OBISPO 64 118 1 16:32 min/mile
99 - 99
Bib Name Finish Time Gun Elapsed Chip Elapsed Age Division Gender City Gender Place Div Place Age Place Pace

Race Info

Participants:
326
Last Updated:
3/28/2018 11:51:00 AM

Tip: Swipe the results table to view more.

Search for Name, Bib, City, State or Team
in the field above… by clicking the icon below…

Notes & Race Statistics

THE 0.0 NONE-RUN - 0


Male
Total Finishers Avg Pace
0 00:00

Female
Total Finishers Avg Pace
0 00:00

HALF MARATHON - 120


Male
Total Finishers Avg Pace
55 10:10

Female
Total Finishers Avg Pace
65 10:59

FULL MARATHON - 31


Male
Total Finishers Avg Pace
15 09:46

Female
Total Finishers Avg Pace
16 10:21

5K - 84


Male
Total Finishers Avg Pace
39 11:19

Female
Total Finishers Avg Pace
45 13:02

10K - 93


Male
Total Finishers Avg Pace
31 12:05

Female
Total Finishers Avg Pace
62 12:21
This event was timed using RM Timing Systems
Take control of your event

Have a question or need to make a correction?

Submit a Result Correction